sensor_id;sensor_type;location;lat;lon;timestamp;temperature;humidity
652;DHT22;310;48.490;9.200;2022-10-31T00:00:43;16.10;42.90
652;DHT22;310;48.490;9.200;2022-10-31T00:03:08;16.20;42.70
652;DHT22;310;48.490;9.200;2022-10-31T00:05:34;16.20;41.70
652;DHT22;310;48.490;9.200;2022-10-31T00:07:59;16.10;42.50
652;DHT22;310;48.490;9.200;2022-10-31T00:10:25;16.10;42.20
652;DHT22;310;48.490;9.200;2022-10-31T00:12:51;16.10;42.30
652;DHT22;310;48.490;9.200;2022-10-31T00:15:16;16.00;42.30
652;DHT22;310;48.490;9.200;2022-10-31T00:17:42;16.00;42.90
652;DHT22;310;48.490;9.200;2022-10-31T00:20:08;16.00;43.10
652;DHT22;310;48.490;9.200;2022-10-31T00:22:34;15.90;43.20
652;DHT22;310;48.490;9.200;2022-10-31T00:24:59;15.80;43.50
652;DHT22;310;48.490;9.200;2022-10-31T00:27:25;15.80;43.10
652;DHT22;310;48.490;9.200;2022-10-31T00:29:50;15.80;43.40
652;DHT22;310;48.490;9.200;2022-10-31T00:32:16;15.90;43.40
652;DHT22;310;48.490;9.200;2022-10-31T00:34:42;15.70;43.80
652;DHT22;310;48.490;9.200;2022-10-31T00:37:07;16.00;44.30
652;DHT22;310;48.490;9.200;2022-10-31T00:39:33;15.70;43.40
652;DHT22;310;48.490;9.200;2022-10-31T00:41:58;15.70;43.80
652;DHT22;310;48.490;9.200;2022-10-31T00:44:24;15.50;44.30
652;DHT22;310;48.490;9.200;2022-10-31T00:46:49;15.50;44.10
652;DHT22;310;48.490;9.200;2022-10-31T00:49:15;15.50;44.40
652;DHT22;310;48.490;9.200;2022-10-31T00:51:40;15.50;43.90
652;DHT22;310;48.490;9.200;2022-10-31T00:54:06;15.40;44.10
652;DHT22;310;48.490;9.200;2022-10-31T00:56:32;15.30;44.30
652;DHT22;310;48.490;9.200;2022-10-31T00:58:57;15.40;44.50
652;DHT22;310;48.490;9.200;2022-10-31T01:01:23;15.30;44.50
652;DHT22;310;48.490;9.200;2022-10-31T01:03:48;15.30;44.90
652;DHT22;310;48.490;9.200;2022-10-31T01:06:14;15.40;44.50
652;DHT22;310;48.490;9.200;2022-10-31T01:08:40;15.30;45.20
652;DHT22;310;48.490;9.200;2022-10-31T01:11:18;15.40;44.80
652;DHT22;310;48.490;9.200;2022-10-31T01:13:44;15.40;45.20
652;DHT22;310;48.490;9.200;2022-10-31T01:16:12;15.20;45.20
652;DHT22;310;48.490;9.200;2022-10-31T01:18:38;15.60;44.70
652;DHT22;310;48.490;9.200;2022-10-31T01:23:32;15.40;44.50
652;DHT22;310;48.490;9.200;2022-10-31T01:26:00;15.70;45.40
652;DHT22;310;48.490;9.200;2022-10-31T01:28:25;15.40;44.40
652;DHT22;310;48.490;9.200;2022-10-31T01:30:51;15.40;44.30
652;DHT22;310;48.490;9.200;2022-10-31T01:33:16;15.30;44.50
652;DHT22;310;48.490;9.200;2022-10-31T01:35:42;15.40;44.50
652;DHT22;310;48.490;9.200;2022-10-31T01:38:07;15.30;44.40
652;DHT22;310;48.490;9.200;2022-10-31T01:40:33;15.30;44.60
652;DHT22;310;48.490;9.200;2022-10-31T01:42:59;15.10;44.50
652;DHT22;310;48.490;9.200;2022-10-31T01:45:24;15.20;44.80
652;DHT22;310;48.490;9.200;2022-10-31T01:47:50;15.10;45.30
652;DHT22;310;48.490;9.200;2022-10-31T01:50:30;15.20;45.40
652;DHT22;310;48.490;9.200;2022-10-31T01:52:59;15.10;45.40
652;DHT22;310;48.490;9.200;2022-10-31T01:55:31;15.10;45.70
652;DHT22;310;48.490;9.200;2022-10-31T01:58:14;15.10;45.50
652;DHT22;310;48.490;9.200;2022-10-31T02:00:44;15.10;45.10
652;DHT22;310;48.490;9.200;2022-10-31T02:03:10;15.10;46.40
652;DHT22;310;48.490;9.200;2022-10-31T02:05:36;14.90;45.90
652;DHT22;310;48.490;9.200;2022-10-31T02:10:47;14.90;45.30
652;DHT22;310;48.490;9.200;2022-10-31T02:13:13;15.00;45.70
652;DHT22;310;48.490;9.200;2022-10-31T02:15:40;14.90;45.50
652;DHT22;310;48.490;9.200;2022-10-31T02:18:07;14.90;45.90
652;DHT22;310;48.490;9.200;2022-10-31T02:20:51;14.80;46.10
652;DHT22;310;48.490;9.200;2022-10-31T02:23:42;14.80;46.50
652;DHT22;310;48.490;9.200;2022-10-31T02:29:33;15.00;46.00
652;DHT22;310;48.490;9.200;2022-10-31T02:32:34;14.80;46.70
652;DHT22;310;48.490;9.200;2022-10-31T02:40:53;14.90;45.60
652;DHT22;310;48.490;9.200;2022-10-31T02:43:10;15.00;45.60
652;DHT22;310;48.490;9.200;2022-10-31T02:48:09;15.10;45.00
652;DHT22;310;48.490;9.200;2022-10-31T02:50:39;15.00;45.30
652;DHT22;310;48.490;9.200;2022-10-31T02:53:06;15.00;45.20
652;DHT22;310;48.490;9.200;2022-10-31T02:58:11;15.00;45.70
652;DHT22;310;48.490;9.200;2022-10-31T03:03:48;14.90;45.10
652;DHT22;310;48.490;9.200;2022-10-31T03:06:30;15.00;45.50
652;DHT22;310;48.490;9.200;2022-10-31T03:09:17;15.00;45.60
652;DHT22;310;48.490;9.200;2022-10-31T03:12:11;14.80;45.00
652;DHT22;310;48.490;9.200;2022-10-31T03:14:47;14.70;45.60
652;DHT22;310;48.490;9.200;2022-10-31T03:17:22;14.90;46.10
652;DHT22;310;48.490;9.200;2022-10-31T03:19:52;14.80;45.70
652;DHT22;310;48.490;9.200;2022-10-31T03:22:24;14.70;46.40
652;DHT22;310;48.490;9.200;2022-10-31T03:24:52;14.90;46.20
652;DHT22;310;48.490;9.200;2022-10-31T03:27:21;14.90;45.40
652;DHT22;310;48.490;9.200;2022-10-31T03:29:50;14.90;45.90
652;DHT22;310;48.490;9.200;2022-10-31T03:32:26;14.80;46.40
652;DHT22;310;48.490;9.200;2022-10-31T03:34:56;14.90;45.60
652;DHT22;310;48.490;9.200;2022-10-31T03:37:24;14.80;45.70
652;DHT22;310;48.490;9.200;2022-10-31T03:39:51;14.90;45.40
652;DHT22;310;48.490;9.200;2022-10-31T03:42:21;14.80;46.80
652;DHT22;310;48.490;9.200;2022-10-31T03:44:56;15.10;47.00
652;DHT22;310;48.490;9.200;2022-10-31T03:47:23;14.60;46.50
652;DHT22;310;48.490;9.200;2022-10-31T03:49:49;14.70;46.10
652;DHT22;310;48.490;9.200;2022-10-31T03:55:03;15.20;45.90
652;DHT22;310;48.490;9.200;2022-10-31T04:00:13;14.60;46.90
652;DHT22;310;48.490;9.200;2022-10-31T04:03:31;14.70;46.30
652;DHT22;310;48.490;9.200;2022-10-31T04:05:31;14.50;46.30
652;DHT22;310;48.490;9.200;2022-10-31T04:07:58;14.50;46.30
652;DHT22;310;48.490;9.200;2022-10-31T04:10:26;14.60;45.90
652;DHT22;310;48.490;9.200;2022-10-31T04:12:58;14.60;45.80
652;DHT22;310;48.490;9.200;2022-10-31T04:15:26;14.50;45.60
652;DHT22;310;48.490;9.200;2022-10-31T04:17:55;14.50;46.20
652;DHT22;310;48.490;9.200;2022-10-31T04:20:30;14.30;45.30
652;DHT22;310;48.490;9.200;2022-10-31T04:22:56;14.20;46.40
652;DHT22;310;48.490;9.200;2022-10-31T04:25:21;14.30;45.90
652;DHT22;310;48.490;9.200;2022-10-31T04:27:47;14.20;45.40
652;DHT22;310;48.490;9.200;2022-10-31T04:30:12;14.30;45.60
652;DHT22;310;48.490;9.200;2022-10-31T04:32:38;14.10;46.00
652;DHT22;310;48.490;9.200;2022-10-31T04:35:04;14.10;45.90
652;DHT22;310;48.490;9.200;2022-10-31T04:37:29;14.00;46.10
652;DHT22;310;48.490;9.200;2022-10-31T04:39:55;13.90;46.60
652;DHT22;310;48.490;9.200;2022-10-31T04:42:20;14.00;47.10
652;DHT22;310;48.490;9.200;2022-10-31T04:44:46;13.90;46.80
652;DHT22;310;48.490;9.200;2022-10-31T04:47:12;14.00;46.80
652;DHT22;310;48.490;9.200;2022-10-31T04:49:37;14.00;46.40
652;DHT22;310;48.490;9.200;2022-10-31T04:52:03;14.00;46.70
652;DHT22;310;48.490;9.200;2022-10-31T04:54:28;13.90;46.30
652;DHT22;310;48.490;9.200;2022-10-31T04:56:54;14.20;46.90
652;DHT22;310;48.490;9.200;2022-10-31T04:59:19;14.00;46.60
652;DHT22;310;48.490;9.200;2022-10-31T05:01:45;13.90;46.80
652;DHT22;310;48.490;9.200;2022-10-31T05:04:11;14.00;46.80
652;DHT22;310;48.490;9.200;2022-10-31T05:06:36;14.10;46.40
652;DHT22;310;48.490;9.200;2022-10-31T05:09:02;14.20;45.60
652;DHT22;310;48.490;9.200;2022-10-31T05:11:28;14.10;46.00
652;DHT22;310;48.490;9.200;2022-10-31T05:13:53;14.10;46.30
652;DHT22;310;48.490;9.200;2022-10-31T05:16:19;14.00;46.40
652;DHT22;310;48.490;9.200;2022-10-31T05:18:44;14.10;46.20
652;DHT22;310;48.490;9.200;2022-10-31T05:21:10;13.90;46.70
652;DHT22;310;48.490;9.200;2022-10-31T05:23:35;14.00;46.70
652;DHT22;310;48.490;9.200;2022-10-31T05:26:01;14.20;46.60
652;DHT22;310;48.490;9.200;2022-10-31T05:28:27;14.20;46.30
652;DHT22;310;48.490;9.200;2022-10-31T05:30:52;14.30;46.00
652;DHT22;310;48.490;9.200;2022-10-31T05:33:18;14.30;46.40
652;DHT22;310;48.490;9.200;2022-10-31T05:35:43;13.90;46.50
652;DHT22;310;48.490;9.200;2022-10-31T05:38:09;14.10;47.00
652;DHT22;310;48.490;9.200;2022-10-31T05:40:35;13.90;46.00
652;DHT22;310;48.490;9.200;2022-10-31T05:43:00;14.00;45.20
652;DHT22;310;48.490;9.200;2022-10-31T05:45:26;14.20;45.80
652;DHT22;310;48.490;9.200;2022-10-31T05:47:53;13.80;46.00
652;DHT22;310;48.490;9.200;2022-10-31T05:50:20;13.70;45.40
652;DHT22;310;48.490;9.200;2022-10-31T05:52:46;13.60;45.90
652;DHT22;310;48.490;9.200;2022-10-31T05:55:12;13.60;46.30
652;DHT22;310;48.490;9.200;2022-10-31T05:57:38;13.60;46.20
652;DHT22;310;48.490;9.200;2022-10-31T06:00:04;13.60;46.90
652;DHT22;310;48.490;9.200;2022-10-31T06:02:30;13.60;46.40
652;DHT22;310;48.490;9.200;2022-10-31T06:05:00;13.60;46.30
652;DHT22;310;48.490;9.200;2022-10-31T06:07:26;13.80;45.90
652;DHT22;310;48.490;9.200;2022-10-31T06:09:51;13.80;46.30
652;DHT22;310;48.490;9.200;2022-10-31T06:12:17;13.80;46.00
652;DHT22;310;48.490;9.200;2022-10-31T06:14:43;13.60;45.80
652;DHT22;310;48.490;9.200;2022-10-31T06:17:08;13.50;46.50
652;DHT22;310;48.490;9.200;2022-10-31T06:19:34;13.50;46.00
652;DHT22;310;48.490;9.200;2022-10-31T06:21:59;13.80;45.90
652;DHT22;310;48.490;9.200;2022-10-31T06:24:25;13.60;46.70
652;DHT22;310;48.490;9.200;2022-10-31T06:26:50;13.60;45.80
652;DHT22;310;48.490;9.200;2022-10-31T06:29:16;13.60;45.90
652;DHT22;310;48.490;9.200;2022-10-31T06:31:41;13.60;45.80
652;DHT22;310;48.490;9.200;2022-10-31T06:34:07;13.60;46.60
652;DHT22;310;48.490;9.200;2022-10-31T06:36:33;13.60;46.20
652;DHT22;310;48.490;9.200;2022-10-31T06:38:59;14.00;45.60
652;DHT22;310;48.490;9.200;2022-10-31T06:41:25;13.90;45.20
652;DHT22;310;48.490;9.200;2022-10-31T06:43:51;13.80;45.90
652;DHT22;310;48.490;9.200;2022-10-31T06:46:16;13.80;46.50
652;DHT22;310;48.490;9.200;2022-10-31T06:48:42;14.00;45.40
652;DHT22;310;48.490;9.200;2022-10-31T06:51:07;13.90;45.70
652;DHT22;310;48.490;9.200;2022-10-31T06:53:33;14.40;46.30
652;DHT22;310;48.490;9.200;2022-10-31T06:55:59;13.90;46.10
652;DHT22;310;48.490;9.200;2022-10-31T06:58:25;13.90;46.80
652;DHT22;310;48.490;9.200;2022-10-31T07:00:50;13.90;46.50
652;DHT22;310;48.490;9.200;2022-10-31T07:03:16;13.90;46.60
652;DHT22;310;48.490;9.200;2022-10-31T07:05:42;14.00;46.30
652;DHT22;310;48.490;9.200;2022-10-31T07:08:12;14.00;47.10
652;DHT22;310;48.490;9.200;2022-10-31T07:10:40;14.00;47.50
652;DHT22;310;48.490;9.200;2022-10-31T07:13:10;14.40;47.90
652;DHT22;310;48.490;9.200;2022-10-31T07:15:37;14.20;47.60
652;DHT22;310;48.490;9.200;2022-10-31T07:18:05;14.40;47.20
652;DHT22;310;48.490;9.200;2022-10-31T07:20:31;14.40;46.60
652;DHT22;310;48.490;9.200;2022-10-31T07:22:57;14.80;47.20
652;DHT22;310;48.490;9.200;2022-10-31T07:25:23;14.60;47.00
652;DHT22;310;48.490;9.200;2022-10-31T07:27:50;14.50;46.50
652;DHT22;310;48.490;9.200;2022-10-31T07:30:16;14.30;46.90
652;DHT22;310;48.490;9.200;2022-10-31T07:32:49;13.90;47.70
652;DHT22;310;48.490;9.200;2022-10-31T07:35:20;13.90;47.60
652;DHT22;310;48.490;9.200;2022-10-31T07:37:46;14.10;47.70
652;DHT22;310;48.490;9.200;2022-10-31T07:40:12;14.20;46.90
652;DHT22;310;48.490;9.200;2022-10-31T07:42:41;14.10;46.00
652;DHT22;310;48.490;9.200;2022-10-31T07:45:09;14.30;46.00
652;DHT22;310;48.490;9.200;2022-10-31T07:47:42;14.30;45.50
652;DHT22;310;48.490;9.200;2022-10-31T07:50:09;13.70;46.60
652;DHT22;310;48.490;9.200;2022-10-31T07:52:35;13.90;48.50
652;DHT22;310;48.490;9.200;2022-10-31T07:55:01;14.10;47.90
652;DHT22;310;48.490;9.200;2022-10-31T07:57:28;13.90;48.80
652;DHT22;310;48.490;9.200;2022-10-31T07:59:53;13.70;50.60
652;DHT22;310;48.490;9.200;2022-10-31T08:02:19;14.10;49.60
652;DHT22;310;48.490;9.200;2022-10-31T08:04:44;14.60;47.70
652;DHT22;310;48.490;9.200;2022-10-31T08:07:10;14.90;46.80
652;DHT22;310;48.490;9.200;2022-10-31T08:09:36;15.10;45.80
652;DHT22;310;48.490;9.200;2022-10-31T08:12:01;15.30;45.90
652;DHT22;310;48.490;9.200;2022-10-31T08:14:27;15.50;45.30
652;DHT22;310;48.490;9.200;2022-10-31T08:16:53;15.80;45.00
652;DHT22;310;48.490;9.200;2022-10-31T08:19:19;15.60;44.30
652;DHT22;310;48.490;9.200;2022-10-31T08:21:45;15.70;44.80
652;DHT22;310;48.490;9.200;2022-10-31T08:24:11;15.90;44.20
652;DHT22;310;48.490;9.200;2022-10-31T08:26:36;16.00;44.10
652;DHT22;310;48.490;9.200;2022-10-31T08:29:02;15.90;44.90
652;DHT22;310;48.490;9.200;2022-10-31T08:31:29;16.00;44.10
652;DHT22;310;48.490;9.200;2022-10-31T08:33:54;16.10;43.80
652;DHT22;310;48.490;9.200;2022-10-31T08:36:20;16.10;43.80
652;DHT22;310;48.490;9.200;2022-10-31T08:38:47;16.10;43.50
652;DHT22;310;48.490;9.200;2022-10-31T08:41:13;16.00;44.80
652;DHT22;310;48.490;9.200;2022-10-31T08:43:39;16.20;44.30
652;DHT22;310;48.490;9.200;2022-10-31T08:46:05;16.50;43.60
652;DHT22;310;48.490;9.200;2022-10-31T08:48:30;16.60;43.00
652;DHT22;310;48.490;9.200;2022-10-31T08:50:58;16.60;41.90
652;DHT22;310;48.490;9.200;2022-10-31T08:53:24;16.70;42.30
652;DHT22;310;48.490;9.200;2022-10-31T08:55:50;16.80;41.70
652;DHT22;310;48.490;9.200;2022-10-31T08:58:19;16.90;41.30
652;DHT22;310;48.490;9.200;2022-10-31T09:00:47;16.90;41.10
652;DHT22;310;48.490;9.200;2022-10-31T09:05:43;17.00;41.50
652;DHT22;310;48.490;9.200;2022-10-31T09:08:09;17.10;41.40
652;DHT22;310;48.490;9.200;2022-10-31T09:10:36;17.10;41.70
652;DHT22;310;48.490;9.200;2022-10-31T09:13:15;16.70;41.80
652;DHT22;310;48.490;9.200;2022-10-31T09:15:43;16.60;42.30
652;DHT22;310;48.490;9.200;2022-10-31T09:18:10;16.50;42.60
652;DHT22;310;48.490;9.200;2022-10-31T09:20:37;16.60;42.90
652;DHT22;310;48.490;9.200;2022-10-31T09:23:25;17.10;42.90
652;DHT22;310;48.490;9.200;2022-10-31T09:25:51;17.50;41.10
652;DHT22;310;48.490;9.200;2022-10-31T09:28:19;17.60;39.70
652;DHT22;310;48.490;9.200;2022-10-31T09:30:50;17.70;39.50
652;DHT22;310;48.490;9.200;2022-10-31T09:33:16;17.70;39.50
652;DHT22;310;48.490;9.200;2022-10-31T09:35:42;18.00;40.60
652;DHT22;310;48.490;9.200;2022-10-31T09:38:21;17.70;39.50
652;DHT22;310;48.490;9.200;2022-10-31T09:43:54;18.20;40.00
652;DHT22;310;48.490;9.200;2022-10-31T09:51:43;19.10;36.60
652;DHT22;310;48.490;9.200;2022-10-31T09:56:46;18.90;37.00
652;DHT22;310;48.490;9.200;2022-10-31T09:59:31;18.90;38.00
652;DHT22;310;48.490;9.200;2022-10-31T10:02:19;19.50;36.50
652;DHT22;310;48.490;9.200;2022-10-31T10:04:59;19.30;35.90
652;DHT22;310;48.490;9.200;2022-10-31T10:09:52;19.20;37.40
652;DHT22;310;48.490;9.200;2022-10-31T10:15:28;19.80;35.20
652;DHT22;310;48.490;9.200;2022-10-31T10:23:29;18.70;38.40
652;DHT22;310;48.490;9.200;2022-10-31T10:26:19;18.70;38.20
652;DHT22;310;48.490;9.200;2022-10-31T10:28:49;18.70;38.60
652;DHT22;310;48.490;9.200;2022-10-31T10:31:21;18.50;39.00
652;DHT22;310;48.490;9.200;2022-10-31T10:33:59;18.90;38.70
652;DHT22;310;48.490;9.200;2022-10-31T10:36:54;19.20;37.40
652;DHT22;310;48.490;9.200;2022-10-31T10:41:59;19.60;36.20
652;DHT22;310;48.490;9.200;2022-10-31T10:44:46;19.60;36.40
652;DHT22;310;48.490;9.200;2022-10-31T10:47:41;20.00;36.10
652;DHT22;310;48.490;9.200;2022-10-31T10:50:16;19.80;35.50
652;DHT22;310;48.490;9.200;2022-10-31T10:56:10;20.00;35.70
652;DHT22;310;48.490;9.200;2022-10-31T10:58:39;20.60;34.10
652;DHT22;310;48.490;9.200;2022-10-31T11:01:13;20.40;34.60
652;DHT22;310;48.490;9.200;2022-10-31T11:03:40;20.20;35.00
652;DHT22;310;48.490;9.200;2022-10-31T11:06:20;20.70;33.90
652;DHT22;310;48.490;9.200;2022-10-31T11:08:50;21.10;32.90
652;DHT22;310;48.490;9.200;2022-10-31T11:11:29;20.80;33.60
652;DHT22;310;48.490;9.200;2022-10-31T11:14:13;21.00;34.50
652;DHT22;310;48.490;9.200;2022-10-31T11:16:43;21.50;32.20
652;DHT22;310;48.490;9.200;2022-10-31T11:19:19;21.90;31.50
652;DHT22;310;48.490;9.200;2022-10-31T11:21:47;21.70;32.80
652;DHT22;310;48.490;9.200;2022-10-31T11:24:26;22.10;31.10
652;DHT22;310;48.490;9.200;2022-10-31T11:27:16;21.50;31.40
652;DHT22;310;48.490;9.200;2022-10-31T11:29:45;21.10;32.60
652;DHT22;310;48.490;9.200;2022-10-31T11:32:22;21.70;34.80
652;DHT22;310;48.490;9.200;2022-10-31T11:34:55;21.90;31.70
652;DHT22;310;48.490;9.200;2022-10-31T11:37:43;21.70;31.30
652;DHT22;310;48.490;9.200;2022-10-31T11:40:24;21.70;31.60
652;DHT22;310;48.490;9.200;2022-10-31T11:42:52;21.70;32.40
652;DHT22;310;48.490;9.200;2022-10-31T11:47:50;21.60;32.30
652;DHT22;310;48.490;9.200;2022-10-31T11:50:22;21.60;32.00
652;DHT22;310;48.490;9.200;2022-10-31T11:52:49;21.60;30.70
652;DHT22;310;48.490;9.200;2022-10-31T11:55:29;22.20;31.00
652;DHT22;310;48.490;9.200;2022-10-31T11:57:55;21.80;30.20
652;DHT22;310;48.490;9.200;2022-10-31T12:00:26;21.90;30.80
652;DHT22;310;48.490;9.200;2022-10-31T12:05:30;21.80;31.40
652;DHT22;310;48.490;9.200;2022-10-31T12:07:58;22.20;30.50
652;DHT22;310;48.490;9.200;2022-10-31T12:10:39;22.00;30.60
652;DHT22;310;48.490;9.200;2022-10-31T12:13:33;21.40;31.90
652;DHT22;310;48.490;9.200;2022-10-31T12:16:06;20.50;35.00
652;DHT22;310;48.490;9.200;2022-10-31T12:18:53;20.20;36.30
652;DHT22;310;48.490;9.200;2022-10-31T12:21:43;20.30;35.80
652;DHT22;310;48.490;9.200;2022-10-31T12:25:15;20.60;35.60
652;DHT22;310;48.490;9.200;2022-10-31T12:33:15;21.20;34.20
652;DHT22;310;48.490;9.200;2022-10-31T12:50:01;21.70;33.30
652;DHT22;310;48.490;9.200;2022-10-31T12:55:41;22.10;33.70
652;DHT22;310;48.490;9.200;2022-10-31T12:58:24;22.20;32.40
652;DHT22;310;48.490;9.200;2022-10-31T13:01:09;22.00;32.40
652;DHT22;310;48.490;9.200;2022-10-31T13:03:51;21.90;32.60
652;DHT22;310;48.490;9.200;2022-10-31T13:06:32;22.20;32.70
652;DHT22;310;48.490;9.200;2022-10-31T13:09:05;22.30;32.10
652;DHT22;310;48.490;9.200;2022-10-31T13:11:35;22.30;31.50
652;DHT22;310;48.490;9.200;2022-10-31T13:16:51;22.10;32.20
652;DHT22;310;48.490;9.200;2022-10-31T13:19:21;21.60;33.20
652;DHT22;310;48.490;9.200;2022-10-31T13:22:10;21.70;33.20
652;DHT22;310;48.490;9.200;2022-10-31T13:25:09;21.70;33.20
652;DHT22;310;48.490;9.200;2022-10-31T13:27:33;21.40;33.60
652;DHT22;310;48.490;9.200;2022-10-31T13:30:03;21.30;34.30
652;DHT22;310;48.490;9.200;2022-10-31T13:44:24;22.70;31.90
652;DHT22;310;48.490;9.200;2022-10-31T13:46:54;22.40;32.50
652;DHT22;310;48.490;9.200;2022-10-31T13:54:47;23.50;30.10
652;DHT22;310;48.490;9.200;2022-10-31T13:57:22;23.60;31.30
652;DHT22;310;48.490;9.200;2022-10-31T13:59:52;23.60;31.40
652;DHT22;310;48.490;9.200;2022-10-31T14:02:30;23.20;29.50
652;DHT22;310;48.490;9.200;2022-10-31T14:05:02;23.70;29.80
652;DHT22;310;48.490;9.200;2022-10-31T14:07:29;25.50;27.50
652;DHT22;310;48.490;9.200;2022-10-31T14:09:57;26.20;25.70
652;DHT22;310;48.490;9.200;2022-10-31T14:12:36;27.20;24.30
652;DHT22;310;48.490;9.200;2022-10-31T14:17:55;26.70;24.10
652;DHT22;310;48.490;9.200;2022-10-31T14:20:34;26.00;25.40
652;DHT22;310;48.490;9.200;2022-10-31T14:28:59;24.40;27.20
652;DHT22;310;48.490;9.200;2022-10-31T14:31:43;24.20;29.00
652;DHT22;310;48.490;9.200;2022-10-31T14:39:26;23.30;31.40
652;DHT22;310;48.490;9.200;2022-10-31T14:42:14;23.00;32.70
652;DHT22;310;48.490;9.200;2022-10-31T14:45:06;22.80;32.30
652;DHT22;310;48.490;9.200;2022-10-31T14:50:44;22.50;33.60
652;DHT22;310;48.490;9.200;2022-10-31T14:53:34;22.40;34.40
652;DHT22;310;48.490;9.200;2022-10-31T14:56:00;22.20;33.10
652;DHT22;310;48.490;9.200;2022-10-31T14:58:39;21.90;34.10
652;DHT22;310;48.490;9.200;2022-10-31T15:01:06;21.80;34.20
652;DHT22;310;48.490;9.200;2022-10-31T15:03:50;21.80;34.40
652;DHT22;310;48.490;9.200;2022-10-31T15:06:19;21.60;33.40
652;DHT22;310;48.490;9.200;2022-10-31T15:08:53;21.50;36.00
652;DHT22;310;48.490;9.200;2022-10-31T15:11:21;21.60;35.90
652;DHT22;310;48.490;9.200;2022-10-31T15:13:51;21.70;35.70
652;DHT22;310;48.490;9.200;2022-10-31T15:16:26;21.70;36.00
652;DHT22;310;48.490;9.200;2022-10-31T15:18:59;21.60;36.40
652;DHT22;310;48.490;9.200;2022-10-31T15:21:26;21.50;36.50
652;DHT22;310;48.490;9.200;2022-10-31T15:23:56;21.40;37.30
652;DHT22;310;48.490;9.200;2022-10-31T15:26:25;21.20;37.30
652;DHT22;310;48.490;9.200;2022-10-31T15:29:05;21.10;37.40
652;DHT22;310;48.490;9.200;2022-10-31T15:31:31;21.10;38.20
652;DHT22;310;48.490;9.200;2022-10-31T15:34:11;21.00;37.90
652;DHT22;310;48.490;9.200;2022-10-31T15:36:38;20.90;38.00
652;DHT22;310;48.490;9.200;2022-10-31T15:39:04;20.70;38.70
652;DHT22;310;48.490;9.200;2022-10-31T15:46:58;20.50;39.30
652;DHT22;310;48.490;9.200;2022-10-31T15:51:57;20.60;38.70
652;DHT22;310;48.490;9.200;2022-10-31T15:54:28;20.60;38.50
652;DHT22;310;48.490;9.200;2022-10-31T15:56:54;20.60;39.00
652;DHT22;310;48.490;9.200;2022-10-31T15:59:22;20.70;39.20
652;DHT22;310;48.490;9.200;2022-10-31T16:02:02;20.60;39.70
652;DHT22;310;48.490;9.200;2022-10-31T16:04:28;20.50;40.50
652;DHT22;310;48.490;9.200;2022-10-31T16:07:03;20.20;41.80
652;DHT22;310;48.490;9.200;2022-10-31T16:09:36;20.10;41.90
652;DHT22;310;48.490;9.200;2022-10-31T16:12:03;20.30;41.90
652;DHT22;310;48.490;9.200;2022-10-31T16:14:31;20.20;41.90
652;DHT22;310;48.490;9.200;2022-10-31T16:17:02;20.10;41.80
652;DHT22;310;48.490;9.200;2022-10-31T16:19:36;19.90;42.40
652;DHT22;310;48.490;9.200;2022-10-31T16:22:23;20.00;42.50
652;DHT22;310;48.490;9.200;2022-10-31T16:25:02;19.90;42.40
652;DHT22;310;48.490;9.200;2022-10-31T16:27:31;19.90;42.00
652;DHT22;310;48.490;9.200;2022-10-31T16:29:58;19.70;42.90
652;DHT22;310;48.490;9.200;2022-10-31T16:32:35;19.40;43.90
652;DHT22;310;48.490;9.200;2022-10-31T16:37:40;19.20;44.60
652;DHT22;310;48.490;9.200;2022-10-31T16:40:06;19.20;44.60
652;DHT22;310;48.490;9.200;2022-10-31T16:42:32;19.20;44.00
652;DHT22;310;48.490;9.200;2022-10-31T16:44:58;19.20;44.10
652;DHT22;310;48.490;9.200;2022-10-31T16:47:24;19.20;43.80
652;DHT22;310;48.490;9.200;2022-10-31T16:49:50;19.00;43.90
652;DHT22;310;48.490;9.200;2022-10-31T16:52:16;19.20;43.80
652;DHT22;310;48.490;9.200;2022-10-31T16:54:42;19.20;44.60
652;DHT22;310;48.490;9.200;2022-10-31T16:57:13;19.20;43.30
652;DHT22;310;48.490;9.200;2022-10-31T16:59:40;19.20;43.50
652;DHT22;310;48.490;9.200;2022-10-31T17:02:14;19.10;43.60
652;DHT22;310;48.490;9.200;2022-10-31T17:04:39;19.30;42.90
652;DHT22;310;48.490;9.200;2022-10-31T17:07:05;19.00;43.20
652;DHT22;310;48.490;9.200;2022-10-31T17:09:31;18.80;44.20
652;DHT22;310;48.490;9.200;2022-10-31T17:11:56;18.70;44.90
652;DHT22;310;48.490;9.200;2022-10-31T17:14:22;18.60;45.30
652;DHT22;310;48.490;9.200;2022-10-31T17:16:48;18.40;46.00
652;DHT22;310;48.490;9.200;2022-10-31T17:19:14;18.50;45.70
652;DHT22;310;48.490;9.200;2022-10-31T17:21:40;18.60;45.20
652;DHT22;310;48.490;9.200;2022-10-31T17:24:06;18.70;44.50
652;DHT22;310;48.490;9.200;2022-10-31T17:26:32;18.70;44.30
652;DHT22;310;48.490;9.200;2022-10-31T17:28:57;18.50;44.80
652;DHT22;310;48.490;9.200;2022-10-31T17:31:29;18.50;44.80
652;DHT22;310;48.490;9.200;2022-10-31T17:33:55;18.50;45.50
652;DHT22;310;48.490;9.200;2022-10-31T17:36:21;18.40;44.90
652;DHT22;310;48.490;9.200;2022-10-31T17:38:47;18.20;45.40
652;DHT22;310;48.490;9.200;2022-10-31T17:41:12;18.30;44.80
652;DHT22;310;48.490;9.200;2022-10-31T17:43:38;18.20;44.90
652;DHT22;310;48.490;9.200;2022-10-31T17:46:04;18.30;44.50
652;DHT22;310;48.490;9.200;2022-10-31T17:48:31;18.10;45.50
652;DHT22;310;48.490;9.200;2022-10-31T17:51:04;18.00;45.60
652;DHT22;310;48.490;9.200;2022-10-31T17:53:32;17.90;45.70
652;DHT22;310;48.490;9.200;2022-10-31T17:56:00;18.00;45.10
652;DHT22;310;48.490;9.200;2022-10-31T17:58:26;18.10;44.30
652;DHT22;310;48.490;9.200;2022-10-31T18:00:52;18.20;44.40
652;DHT22;310;48.490;9.200;2022-10-31T18:03:17;18.10;45.00
652;DHT22;310;48.490;9.200;2022-10-31T18:05:57;18.00;44.90
652;DHT22;310;48.490;9.200;2022-10-31T18:08:42;18.00;44.90
652;DHT22;310;48.490;9.200;2022-10-31T18:11:20;17.90;45.60
652;DHT22;310;48.490;9.200;2022-10-31T18:13:46;17.80;45.70
652;DHT22;310;48.490;9.200;2022-10-31T18:16:15;17.80;45.10
652;DHT22;310;48.490;9.200;2022-10-31T18:18:41;17.50;45.90
652;DHT22;310;48.490;9.200;2022-10-31T18:21:07;17.70;45.80
652;DHT22;310;48.490;9.200;2022-10-31T18:23:33;17.70;45.40
652;DHT22;310;48.490;9.200;2022-10-31T18:25:59;17.60;45.90
652;DHT22;310;48.490;9.200;2022-10-31T18:28:24;17.50;46.20
652;DHT22;310;48.490;9.200;2022-10-31T18:30:50;17.60;45.90
652;DHT22;310;48.490;9.200;2022-10-31T18:33:16;17.60;46.00
652;DHT22;310;48.490;9.200;2022-10-31T18:35:41;17.70;46.00
652;DHT22;310;48.490;9.200;2022-10-31T18:38:07;17.40;46.70
652;DHT22;310;48.490;9.200;2022-10-31T18:40:33;16.30;52.60
652;DHT22;310;48.490;9.200;2022-10-31T18:43:02;16.80;53.20
652;DHT22;310;48.490;9.200;2022-10-31T18:45:28;16.60;52.10
652;DHT22;310;48.490;9.200;2022-10-31T18:47:53;16.80;51.20
652;DHT22;310;48.490;9.200;2022-10-31T18:50:20;17.00;49.80
652;DHT22;310;48.490;9.200;2022-10-31T18:52:45;17.10;49.00
652;DHT22;310;48.490;9.200;2022-10-31T18:55:11;17.20;48.60
652;DHT22;310;48.490;9.200;2022-10-31T18:57:37;17.00;49.40
652;DHT22;310;48.490;9.200;2022-10-31T19:00:04;17.00;49.10
652;DHT22;310;48.490;9.200;2022-10-31T19:02:30;17.30;47.90
652;DHT22;310;48.490;9.200;2022-10-31T19:04:55;17.20;48.10